sensor_id;sensor_type;location;lat;lon;timestamp;pressure;altitude;pressure_sealevel;temperature;humidity
52923;BME280;38796;42.702;23.306;2022-12-07T00:00:14;95262.97;;;3.92;100.00
52923;BME280;38796;42.702;23.306;2022-12-07T00:02:12;95259.22;;;3.96;100.00
52923;BME280;38796;42.702;23.306;2022-12-07T00:04:13;95252.28;;;3.97;100.00
52923;BME280;38796;42.702;23.306;2022-12-07T00:06:15;95258.59;;;3.93;100.00
52923;BME280;38796;42.702;23.306;2022-12-07T00:08:15;95259.44;;;3.93;100.00
52923;BME280;38796;42.702;23.306;2022-12-07T00:10:13;95260.47;;;3.91;100.00
52923;BME280;38796;42.702;23.306;2022-12-07T00:12:11;95260.66;;;3.88;100.00
52923;BME280;38796;42.702;23.306;2022-12-07T00:14:12;95259.34;;;3.80;100.00
52923;BME280;38796;42.702;23.306;2022-12-07T00:16:13;95252.53;;;3.78;100.00
52923;BME280;38796;42.702;23.306;2022-12-07T00:18:12;95247.25;;;3.79;100.00
52923;BME280;38796;42.702;23.306;2022-12-07T00:20:10;95255.06;;;3.79;100.00
52923;BME280;38796;42.702;23.306;2022-12-07T00:22:09;95263.72;;;3.80;100.00
52923;BME280;38796;42.702;23.306;2022-12-07T00:24:10;95258.81;;;3.75;100.00
52923;BME280;38796;42.702;23.306;2022-12-07T00:26:11;95258.81;;;3.75;100.00
52923;BME280;38796;42.702;23.306;2022-12-07T00:28:10;95253.84;;;3.71;100.00
52923;BME280;38796;42.702;23.306;2022-12-07T00:30:09;95255.72;;;3.69;100.00
52923;BME280;38796;42.702;23.306;2022-12-07T00:32:08;95257.88;;;3.76;100.00
52923;BME280;38796;42.702;23.306;2022-12-07T00:34:07;95267.91;;;3.97;100.00
52923;BME280;38796;42.702;23.306;2022-12-07T00:36:12;95263.59;;;4.10;100.00
52923;BME280;38796;42.702;23.306;2022-12-07T00:38:11;95258.31;;;4.12;100.00
52923;BME280;38796;42.702;23.306;2022-12-07T00:40:11;95261.75;;;4.12;100.00
52923;BME280;38796;42.702;23.306;2022-12-07T00:42:09;95269.91;;;4.20;100.00
52923;BME280;38796;42.702;23.306;2022-12-07T00:44:08;95265.44;;;4.22;100.00
52923;BME280;38796;42.702;23.306;2022-12-07T00:46:06;95256.22;;;4.17;100.00
52923;BME280;38796;42.702;23.306;2022-12-07T00:48:05;95256.91;;;4.06;100.00
52923;BME280;38796;42.702;23.306;2022-12-07T00:50:04;95254.66;;;4.00;100.00
52923;BME280;38796;42.702;23.306;2022-12-07T00:52:03;95244.72;;;3.92;100.00
52923;BME280;38796;42.702;23.306;2022-12-07T00:54:01;95252.00;;;3.87;100.00
52923;BME280;38796;42.702;23.306;2022-12-07T00:56:06;95250.34;;;3.86;100.00
52923;BME280;38796;42.702;23.306;2022-12-07T00:58:04;95249.47;;;3.85;100.00
52923;BME280;38796;42.702;23.306;2022-12-07T01:00:03;95245.31;;;3.83;100.00
52923;BME280;38796;42.702;23.306;2022-12-07T01:02:04;95253.00;;;3.84;100.00
52923;BME280;38796;42.702;23.306;2022-12-07T01:04:03;95249.56;;;3.84;100.00
52923;BME280;38796;42.702;23.306;2022-12-07T01:06:02;95252.06;;;3.85;100.00
52923;BME280;38796;42.702;23.306;2022-12-07T01:08:01;95246.97;;;3.84;100.00
52923;BME280;38796;42.702;23.306;2022-12-07T01:10:00;95249.28;;;3.89;100.00
52923;BME280;38796;42.702;23.306;2022-12-07T01:12:00;95243.88;;;4.06;100.00
52923;BME280;38796;42.702;23.306;2022-12-07T01:14:00;95248.75;;;4.25;100.00
52923;BME280;38796;42.702;23.306;2022-12-07T01:16:00;95241.41;;;4.31;100.00
52923;BME280;38796;42.702;23.306;2022-12-07T01:17:59;95237.84;;;4.32;100.00
52923;BME280;38796;42.702;23.306;2022-12-07T01:19:57;95235.88;;;4.36;100.00
52923;BME280;38796;42.702;23.306;2022-12-07T01:21:56;95232.94;;;4.28;100.00
52923;BME280;38796;42.702;23.306;2022-12-07T01:23:56;95237.25;;;4.15;100.00
52923;BME280;38796;42.702;23.306;2022-12-07T01:25:56;95236.88;;;4.06;100.00
52923;BME280;38796;42.702;23.306;2022-12-07T01:27:56;95235.41;;;4.02;100.00
52923;BME280;38796;42.702;23.306;2022-12-07T01:29:54;95234.03;;;3.97;100.00
52923;BME280;38796;42.702;23.306;2022-12-07T01:31:53;95226.50;;;3.92;100.00
52923;BME280;38796;42.702;23.306;2022-12-07T01:33:53;95232.00;;;3.88;100.00
52923;BME280;38796;42.702;23.306;2022-12-07T01:35:51;95232.00;;;3.88;100.00
52923;BME280;38796;42.702;23.306;2022-12-07T01:37:50;95231.25;;;3.85;100.00
52923;BME280;38796;42.702;23.306;2022-12-07T01:39:48;95226.25;;;3.82;100.00
52923;BME280;38796;42.702;23.306;2022-12-07T01:41:47;95228.63;;;3.85;100.00
52923;BME280;38796;42.702;23.306;2022-12-07T01:44:15;95226.25;;;3.82;100.00
52923;BME280;38796;42.702;23.306;2022-12-07T01:46:14;95229.03;;;3.79;100.00
52923;BME280;38796;42.702;23.306;2022-12-07T01:48:15;95228.56;;;3.87;100.00
52923;BME280;38796;42.702;23.306;2022-12-07T01:50:14;95223.22;;;4.03;100.00
52923;BME280;38796;42.702;23.306;2022-12-07T01:52:15;95221.19;;;4.08;100.00
52923;BME280;38796;42.702;23.306;2022-12-07T01:54:16;95223.56;;;4.11;100.00
52923;BME280;38796;42.702;23.306;2022-12-07T01:56:17;95215.22;;;4.06;100.00
52923;BME280;38796;42.702;23.306;2022-12-07T01:58:18;95216.34;;;4.02;100.00
52923;BME280;38796;42.702;23.306;2022-12-07T02:00:19;95214.50;;;4.04;100.00
52923;BME280;38796;42.702;23.306;2022-12-07T02:02:20;95214.88;;;3.98;100.00
52923;BME280;38796;42.702;23.306;2022-12-07T02:04:21;95209.19;;;3.91;100.00
52923;BME280;38796;42.702;23.306;2022-12-07T02:06:22;95221.38;;;3.91;100.00
52923;BME280;38796;42.702;23.306;2022-12-07T02:08:22;95217.94;;;3.90;100.00
52923;BME280;38796;42.702;23.306;2022-12-07T02:10:24;95214.69;;;3.87;100.00
52923;BME280;38796;42.702;23.306;2022-12-07T02:12:24;95207.91;;;3.84;100.00
52923;BME280;38796;42.702;23.306;2022-12-07T02:14:22;95212.16;;;3.85;100.00
52923;BME280;38796;42.702;23.306;2022-12-07T02:16:31;95210.41;;;3.85;100.00
52923;BME280;38796;42.702;23.306;2022-12-07T02:18:42;95216.66;;;3.83;100.00
52923;BME280;38796;42.702;23.306;2022-12-07T02:20:45;95212.28;;;3.83;100.00
52923;BME280;38796;42.702;23.306;2022-12-07T02:23:00;95211.50;;;3.96;100.00
52923;BME280;38796;42.702;23.306;2022-12-07T02:25:08;95202.72;;;4.11;100.00
52923;BME280;38796;42.702;23.306;2022-12-07T02:27:40;95206.72;;;4.17;100.00
52923;BME280;38796;42.702;23.306;2022-12-07T02:29:45;95199.00;;;4.15;100.00
52923;BME280;38796;42.702;23.306;2022-12-07T02:31:48;95203.66;;;4.10;100.00
52923;BME280;38796;42.702;23.306;2022-12-07T02:33:51;95196.97;;;4.06;100.00
52923;BME280;38796;42.702;23.306;2022-12-07T02:35:58;95199.53;;;3.93;100.00
52923;BME280;38796;42.702;23.306;2022-12-07T02:38:02;95197.38;;;3.85;100.00
52923;BME280;38796;42.702;23.306;2022-12-07T02:40:10;95207.25;;;3.80;100.00
52923;BME280;38796;42.702;23.306;2022-12-07T02:42:12;95208.56;;;3.73;100.00
52923;BME280;38796;42.702;23.306;2022-12-07T02:44:12;95211.00;;;3.62;100.00
52923;BME280;38796;42.702;23.306;2022-12-07T02:46:15;95198.44;;;3.54;100.00
52923;BME280;38796;42.702;23.306;2022-12-07T02:48:16;95185.91;;;3.47;100.00
52923;BME280;38796;42.702;23.306;2022-12-07T02:50:14;95193.78;;;3.45;100.00
52923;BME280;38796;42.702;23.306;2022-12-07T02:52:15;95198.44;;;3.40;100.00
52923;BME280;38796;42.702;23.306;2022-12-07T02:54:13;95190.81;;;3.37;100.00
52923;BME280;38796;42.702;23.306;2022-12-07T02:56:13;95195.19;;;3.36;100.00
52923;BME280;38796;42.702;23.306;2022-12-07T02:58:22;95195.38;;;3.33;100.00
52923;BME280;38796;42.702;23.306;2022-12-07T03:00:21;95191.09;;;3.32;100.00
52923;BME280;38796;42.702;23.306;2022-12-07T03:02:22;95184.22;;;3.31;100.00
52923;BME280;38796;42.702;23.306;2022-12-07T03:04:28;95174.72;;;3.30;100.00
52923;BME280;38796;42.702;23.306;2022-12-07T03:06:31;95184.41;;;3.28;100.00
52923;BME280;38796;42.702;23.306;2022-12-07T03:08:36;95179.09;;;3.30;100.00
52923;BME280;38796;42.702;23.306;2022-12-07T03:10:39;95182.00;;;3.40;100.00
52923;BME280;38796;42.702;23.306;2022-12-07T03:12:42;95183.31;;;3.32;100.00
52923;BME280;38796;42.702;23.306;2022-12-07T03:14:43;95177.16;;;3.19;100.00
52923;BME280;38796;42.702;23.306;2022-12-07T03:16:46;95183.53;;;3.13;100.00
52923;BME280;38796;42.702;23.306;2022-12-07T03:18:48;95173.41;;;3.09;100.00
52923;BME280;38796;42.702;23.306;2022-12-07T03:20:49;95171.75;;;3.08;100.00
52923;BME280;38796;42.702;23.306;2022-12-07T03:22:48;95177.03;;;3.06;100.00
52923;BME280;38796;42.702;23.306;2022-12-07T03:24:49;95174.34;;;3.08;100.00
52923;BME280;38796;42.702;23.306;2022-12-07T03:26:49;95172.69;;;3.07;100.00
52923;BME280;38796;42.702;23.306;2022-12-07T03:28:50;95183.28;;;3.04;100.00
52923;BME280;38796;42.702;23.306;2022-12-07T03:30:51;95182.50;;;3.02;100.00
52923;BME280;38796;42.702;23.306;2022-12-07T03:32:52;95179.75;;;3.05;100.00
52923;BME280;38796;42.702;23.306;2022-12-07T03:34:55;95185.59;;;3.08;100.00
52923;BME280;38796;42.702;23.306;2022-12-07T03:36:56;95183.16;;;3.05;100.00
52923;BME280;38796;42.702;23.306;2022-12-07T03:38:58;95183.09;;;3.07;100.00
52923;BME280;38796;42.702;23.306;2022-12-07T03:40:58;95183.09;;;3.07;100.00
52923;BME280;38796;42.702;23.306;2022-12-07T03:42:58;95177.97;;;3.20;100.00
52923;BME280;38796;42.702;23.306;2022-12-07T03:44:58;95176.69;;;3.27;100.00
52923;BME280;38796;42.702;23.306;2022-12-07T03:46:59;95178.09;;;3.32;100.00
52923;BME280;38796;42.702;23.306;2022-12-07T03:48:59;95180.78;;;3.31;100.00
52923;BME280;38796;42.702;23.306;2022-12-07T03:51:06;95190.72;;;3.24;100.00
52923;BME280;38796;42.702;23.306;2022-12-07T03:53:08;95182.81;;;3.26;100.00
52923;BME280;38796;42.702;23.306;2022-12-07T03:55:09;95179.47;;;3.24;100.00
52923;BME280;38796;42.702;23.306;2022-12-07T03:57:09;95173.72;;;3.19;100.00
52923;BME280;38796;42.702;23.306;2022-12-07T03:59:08;95182.72;;;3.13;100.00
52923;BME280;38796;42.702;23.306;2022-12-07T04:01:07;95173.72;;;3.19;100.00
52923;BME280;38796;42.702;23.306;2022-12-07T04:03:05;95167.94;;;3.13;100.00
52923;BME280;38796;42.702;23.306;2022-12-07T04:05:04;95172.88;;;3.18;100.00
52923;BME280;38796;42.702;23.306;2022-12-07T04:07:04;95166.75;;;3.19;100.00
52923;BME280;38796;42.702;23.306;2022-12-07T04:09:02;95170.53;;;3.13;100.00
52923;BME280;38796;42.702;23.306;2022-12-07T04:11:00;95167.03;;;3.15;100.00
52923;BME280;38796;42.702;23.306;2022-12-07T04:12:58;95174.00;;;3.14;100.00
52923;BME280;38796;42.702;23.306;2022-12-07T04:14:57;95164.50;;;3.13;100.00
52923;BME280;38796;42.702;23.306;2022-12-07T04:16:55;95162.47;;;3.18;100.00
52923;BME280;38796;42.702;23.306;2022-12-07T04:18:54;95170.28;;;3.18;100.00
52923;BME280;38796;42.702;23.306;2022-12-07T04:20:52;95166.63;;;3.21;100.00
52923;BME280;38796;42.702;23.306;2022-12-07T04:22:51;95167.69;;;3.18;100.00
52923;BME280;38796;42.702;23.306;2022-12-07T04:24:49;95167.56;;;3.20;100.00
52923;BME280;38796;42.702;23.306;2022-12-07T04:26:47;95164.13;;;3.19;100.00
52923;BME280;38796;42.702;23.306;2022-12-07T04:28:46;95171.84;;;3.21;100.00
52923;BME280;38796;42.702;23.306;2022-12-07T04:30:45;95176.50;;;3.30;100.00
52923;BME280;38796;42.702;23.306;2022-12-07T04:32:43;95176.50;;;3.30;100.00
52923;BME280;38796;42.702;23.306;2022-12-07T04:34:41;95170.28;;;3.32;100.00
52923;BME280;38796;42.702;23.306;2022-12-07T04:36:39;95168.53;;;3.33;100.00
52923;BME280;38796;42.702;23.306;2022-12-07T04:38:39;95173.44;;;3.23;100.00
52923;BME280;38796;42.702;23.306;2022-12-07T04:40:37;95171.47;;;3.12;100.00
52923;BME280;38796;42.702;23.306;2022-12-07T04:42:35;95171.00;;;3.06;100.00
52923;BME280;38796;42.702;23.306;2022-12-07T04:44:33;95178.31;;;2.99;100.00
52923;BME280;38796;42.702;23.306;2022-12-07T04:46:31;95180.47;;;2.93;100.00
52923;BME280;38796;42.702;23.306;2022-12-07T04:48:29;95189.47;;;2.87;100.00
52923;BME280;38796;42.702;23.306;2022-12-07T04:50:28;95183.72;;;2.82;100.00
52923;BME280;38796;42.702;23.306;2022-12-07T04:52:26;95183.22;;;2.75;100.00
52923;BME280;38796;42.702;23.306;2022-12-07T04:54:26;95183.88;;;2.79;100.00
52923;BME280;38796;42.702;23.306;2022-12-07T04:56:24;95182.13;;;2.79;100.00
52923;BME280;38796;42.702;23.306;2022-12-07T04:58:22;95188.31;;;2.77;100.00
52923;BME280;38796;42.702;23.306;2022-12-07T05:00:21;95183.13;;;2.77;100.00
52923;BME280;38796;42.702;23.306;2022-12-07T05:02:19;95184.88;;;2.76;100.00
52923;BME280;38796;42.702;23.306;2022-12-07T05:04:17;95187.03;;;2.84;100.00
52923;BME280;38796;42.702;23.306;2022-12-07T05:06:16;95196.78;;;2.80;100.00
52923;BME280;38796;42.702;23.306;2022-12-07T05:08:14;95188.06;;;2.81;100.00
52923;BME280;38796;42.702;23.306;2022-12-07T05:10:14;95195.88;;;2.81;100.00
52923;BME280;38796;42.702;23.306;2022-12-07T05:12:11;95185.94;;;2.88;100.00
52923;BME280;38796;42.702;23.306;2022-12-07T05:14:11;95184.81;;;2.92;100.00
52923;BME280;38796;42.702;23.306;2022-12-07T05:16:10;95182.31;;;2.91;100.00
52923;BME280;38796;42.702;23.306;2022-12-07T05:18:08;95181.00;;;2.83;100.00
52923;BME280;38796;42.702;23.306;2022-12-07T05:20:06;95177.00;;;2.78;100.00
52923;BME280;38796;42.702;23.306;2022-12-07T05:22:04;95172.81;;;2.75;100.00
52923;BME280;38796;42.702;23.306;2022-12-07T05:24:02;95185.06;;;2.73;100.00
52923;BME280;38796;42.702;23.306;2022-12-07T05:26:02;95184.06;;;2.76;100.00
52923;BME280;38796;42.702;23.306;2022-12-07T05:28:00;95187.50;;;2.76;100.00
52923;BME280;38796;42.702;23.306;2022-12-07T05:29:58;95184.34;;;2.71;100.00
52923;BME280;38796;42.702;23.306;2022-12-07T05:31:57;95180.41;;;2.64;100.00
52923;BME280;38796;42.702;23.306;2022-12-07T05:33:55;95180.66;;;2.59;100.00
52923;BME280;38796;42.702;23.306;2022-12-07T05:35:53;95178.72;;;2.63;100.00
52923;BME280;38796;42.702;23.306;2022-12-07T05:37:51;95179.66;;;2.62;100.00
52923;BME280;38796;42.702;23.306;2022-12-07T05:39:49;95182.34;;;2.60;100.00
52923;BME280;38796;42.702;23.306;2022-12-07T05:41:49;95185.78;;;2.61;100.00
52923;BME280;38796;42.702;23.306;2022-12-07T05:44:04;95183.28;;;2.74;100.00
52923;BME280;38796;42.702;23.306;2022-12-07T05:46:02;95181.09;;;2.82;100.00
52923;BME280;38796;42.702;23.306;2022-12-07T05:48:00;95170.91;;;2.93;100.00
52923;BME280;38796;42.702;23.306;2022-12-07T05:49:58;95178.81;;;3.06;100.00
52923;BME280;38796;42.702;23.306;2022-12-07T05:51:57;95173.06;;;3.15;100.00
52923;BME280;38796;42.702;23.306;2022-12-07T05:53:55;95163.38;;;3.17;100.00
52923;BME280;38796;42.702;23.306;2022-12-07T05:55:53;95165.81;;;3.20;100.00
52923;BME280;38796;42.702;23.306;2022-12-07T05:57:52;95161.53;;;3.19;100.00
52923;BME280;38796;42.702;23.306;2022-12-07T06:00:05;95170.94;;;3.22;100.00
52923;BME280;38796;42.702;23.306;2022-12-07T06:02:08;95169.06;;;3.24;100.00
52923;BME280;38796;42.702;23.306;2022-12-07T06:04:07;95166.63;;;3.21;100.00
52923;BME280;38796;42.702;23.306;2022-12-07T06:06:05;95165.91;;;3.19;100.00
52923;BME280;38796;42.702;23.306;2022-12-07T06:08:03;95166.00;;;3.31;100.00
52923;BME280;38796;42.702;23.306;2022-12-07T06:10:02;95169.06;;;3.24;100.00
52923;BME280;38796;42.702;23.306;2022-12-07T06:12:03;95167.50;;;3.21;100.00
52923;BME280;38796;42.702;23.306;2022-12-07T06:14:20;95171.13;;;3.33;100.00
52923;BME280;38796;42.702;23.306;2022-12-07T06:16:18;95180.13;;;3.42;100.00
52923;BME280;38796;42.702;23.306;2022-12-07T06:18:16;95173.16;;;3.42;100.00
52923;BME280;38796;42.702;23.306;2022-12-07T06:20:14;95174.09;;;3.27;100.00
52923;BME280;38796;42.702;23.306;2022-12-07T06:22:12;95168.97;;;3.25;100.00
52923;BME280;38796;42.702;23.306;2022-12-07T06:24:12;95184.41;;;3.28;100.00
52923;BME280;38796;42.702;23.306;2022-12-07T06:26:11;95179.75;;;3.33;100.00
52923;BME280;38796;42.702;23.306;2022-12-07T06:28:09;95174.38;;;3.36;100.00
52923;BME280;38796;42.702;23.306;2022-12-07T06:30:09;95176.78;;;3.40;100.00
52923;BME280;38796;42.702;23.306;2022-12-07T06:32:07;95176.78;;;3.40;100.00
52923;BME280;38796;42.702;23.306;2022-12-07T06:34:06;95177.88;;;3.50;100.00
52923;BME280;38796;42.702;23.306;2022-12-07T06:36:05;95188.84;;;3.69;100.00
52923;BME280;38796;42.702;23.306;2022-12-07T06:38:03;95197.38;;;3.85;100.00
52923;BME280;38796;42.702;23.306;2022-12-07T06:40:01;95192.38;;;3.97;100.00
52923;BME280;38796;42.702;23.306;2022-12-07T06:42:00;95191.66;;;4.07;100.00
52923;BME280;38796;42.702;23.306;2022-12-07T06:43:58;95190.19;;;4.03;100.00
52923;BME280;38796;42.702;23.306;2022-12-07T06:45:57;95196.03;;;4.07;100.00
52923;BME280;38796;42.702;23.306;2022-12-07T06:47:55;95189.34;;;4.03;100.00
52923;BME280;38796;42.702;23.306;2022-12-07T06:49:53;95202.56;;;4.00;100.00
52923;BME280;38796;42.702;23.306;2022-12-07T06:51:52;95196.16;;;3.91;100.00
52923;BME280;38796;42.702;23.306;2022-12-07T06:53:49;95191.78;;;3.92;100.00
52923;BME280;38796;42.702;23.306;2022-12-07T06:55:48;95194.69;;;3.87;100.00
52923;BME280;38796;42.702;23.306;2022-12-07T06:57:46;95198.25;;;3.86;100.00
52923;BME280;38796;42.702;23.306;2022-12-07T06:59:43;95198.97;;;3.88;100.00
52923;BME280;38796;42.702;23.306;2022-12-07T07:01:43;95205.75;;;3.91;100.00
52923;BME280;38796;42.702;23.306;2022-12-07T07:03:41;95203.16;;;3.91;100.00
52923;BME280;38796;42.702;23.306;2022-12-07T07:05:39;95193.28;;;3.96;100.00
52923;BME280;38796;42.702;23.306;2022-12-07T07:07:38;95195.97;;;3.94;100.00
52923;BME280;38796;42.702;23.306;2022-12-07T07:09:55;95192.63;;;3.92;100.00
52923;BME280;38796;42.702;23.306;2022-12-07T07:11:53;95195.97;;;3.94;100.00
52923;BME280;38796;42.702;23.306;2022-12-07T07:13:51;95199.59;;;3.92;100.00
52923;BME280;38796;42.702;23.306;2022-12-07T07:15:50;95195.09;;;4.22;100.00
52923;BME280;38796;42.702;23.306;2022-12-07T07:17:49;95201.16;;;4.36;100.00
52923;BME280;38796;42.702;23.306;2022-12-07T07:19:47;95188.28;;;4.47;100.00
52923;BME280;38796;42.702;23.306;2022-12-07T07:21:45;95199.97;;;4.54;100.00
52923;BME280;38796;42.702;23.306;2022-12-07T07:23:44;95191.44;;;4.65;100.00
52923;BME280;38796;42.702;23.306;2022-12-07T07:25:42;95185.41;;;4.64;100.00
52923;BME280;38796;42.702;23.306;2022-12-07T07:27:39;95195.19;;;4.61;100.00
52923;BME280;38796;42.702;23.306;2022-12-07T07:29:38;95198.66;;;4.61;100.00
52923;BME280;38796;42.702;23.306;2022-12-07T07:31:36;95198.66;;;4.61;100.00
52923;BME280;38796;42.702;23.306;2022-12-07T07:33:35;95206.47;;;4.61;100.00
52923;BME280;38796;42.702;23.306;2022-12-07T07:35:34;95201.88;;;4.52;100.00
52923;BME280;38796;42.702;23.306;2022-12-07T07:37:32;95203.34;;;4.56;100.00
52923;BME280;38796;42.702;23.306;2022-12-07T07:39:30;95205.81;;;4.57;100.00
52923;BME280;38796;42.702;23.306;2022-12-07T07:41:30;95204.22;;;4.69;100.00
52923;BME280;38796;42.702;23.306;2022-12-07T07:43:31;95199.66;;;4.86;100.00
52923;BME280;38796;42.702;23.306;2022-12-07T07:45:29;95201.22;;;5.01;100.00
52923;BME280;38796;42.702;23.306;2022-12-07T07:47:27;95195.09;;;5.15;100.00
52923;BME280;38796;42.702;23.306;2022-12-07T07:49:27;95200.03;;;5.19;99.40
52923;BME280;38796;42.702;23.306;2022-12-07T07:51:25;95203.47;;;5.20;99.50
52923;BME280;38796;42.702;23.306;2022-12-07T07:53:23;95198.03;;;5.36;98.82
52923;BME280;38796;42.702;23.306;2022-12-07T07:55:21;95208.47;;;5.36;98.25
52923;BME280;38796;42.702;23.306;2022-12-07T07:57:19;95203.38;;;5.34;98.03
52923;BME280;38796;42.702;23.306;2022-12-07T07:59:17;95208.91;;;5.42;97.91
52923;BME280;38796;42.702;23.306;2022-12-07T08:01:15;95199.69;;;5.49;97.17
52923;BME280;38796;42.702;23.306;2022-12-07T08:03:16;95200.31;;;5.53;96.28
52923;BME280;38796;42.702;23.306;2022-12-07T08:05:16;95197.91;;;5.37;97.39
52923;BME280;38796;42.702;23.306;2022-12-07T08:07:14;95198.88;;;5.23;97.76
52923;BME280;38796;42.702;23.306;2022-12-07T08:09:12;95201.88;;;5.17;98.57
52923;BME280;38796;42.702;23.306;2022-12-07T08:11:10;95202.84;;;5.42;98.05
52923;BME280;38796;42.702;23.306;2022-12-07T08:13:08;95199.59;;;5.25;97.92
52923;BME280;38796;42.702;23.306;2022-12-07T08:15:10;95200.44;;;5.13;97.92
52923;BME280;38796;42.702;23.306;2022-12-07T08:17:08;95200.63;;;5.10;98.87
52923;BME280;38796;42.702;23.306;2022-12-07T08:19:06;95199.47;;;5.14;98.45
52923;BME280;38796;42.702;23.306;2022-12-07T08:21:06;95203.25;;;5.10;98.25
52923;BME280;38796;42.702;23.306;2022-12-07T08:23:04;95202.63;;;5.19;98.40
52923;BME280;38796;42.702;23.306;2022-12-07T08:25:03;95201.88;;;5.17;98.26
52923;BME280;38796;42.702;23.306;2022-12-07T08:27:02;95198.13;;;5.21;97.90
52923;BME280;38796;42.702;23.306;2022-12-07T08:29:01;95197.41;;;5.19;97.67
52923;BME280;38796;42.702;23.306;2022-12-07T08:30:59;95202.50;;;5.21;97.66
52923;BME280;38796;42.702;23.306;2022-12-07T08:32:58;95202.50;;;5.34;97.55
52923;BME280;38796;42.702;23.306;2022-12-07T08:34:56;95197.09;;;5.24;97.66
52923;BME280;38796;42.702;23.306;2022-12-07T08:36:55;95202.94;;;5.27;97.21
52923;BME280;38796;42.702;23.306;2022-12-07T08:38:53;95203.72;;;5.92;96.26
52923;BME280;38796;42.702;23.306;2022-12-07T08:41:11;95196.03;;;6.75;91.00
52923;BME280;38796;42.702;23.306;2022-12-07T08:43:09;95192.91;;;6.70;89.12
52923;BME280;38796;42.702;23.306;2022-12-07T08:45:08;95187.00;;;6.79;88.38
52923;BME280;38796;42.702;23.306;2022-12-07T08:47:07;95185.22;;;7.26;87.00
52923;BME280;38796;42.702;23.306;2022-12-07T08:49:06;95185.16;;;8.93;81.49
52923;BME280;38796;42.702;23.306;2022-12-07T08:51:05;95175.75;;;10.94;72.17
52923;BME280;38796;42.702;23.306;2022-12-07T08:53:05;95177.38;;;12.27;66.28
52923;BME280;38796;42.702;23.306;2022-12-07T08:55:04;95163.84;;;13.12;62.88
52923;BME280;38796;42.702;23.306;2022-12-07T08:57:02;95169.84;;;12.96;61.92
52923;BME280;38796;42.702;23.306;2022-12-07T08:59:01;95166.16;;;14.03;58.69
52923;BME280;38796;42.702;23.306;2022-12-07T09:00:59;95168.06;;;13.22;60.29
52923;BME280;38796;42.702;23.306;2022-12-07T09:02:57;95159.09;;;12.97;61.25
52923;BME280;38796;42.702;23.306;2022-12-07T09:04:58;95148.00;;;12.94;59.79
52923;BME280;38796;42.702;23.306;2022-12-07T09:06:56;95148.69;;;12.60;61.01
52923;BME280;38796;42.702;23.306;2022-12-07T09:08:56;95154.44;;;12.91;61.27
52923;BME280;38796;42.702;23.306;2022-12-07T09:10:55;95145.84;;;14.11;57.19
52923;BME280;38796;42.702;23.306;2022-12-07T09:12:53;95143.50;;;13.48;58.19
52923;BME280;38796;42.702;23.306;2022-12-07T09:14:52;95139.75;;;12.43;60.82
52923;BME280;38796;42.702;23.306;2022-12-07T09:16:50;95145.47;;;11.27;64.61
52923;BME280;38796;42.702;23.306;2022-12-07T09:18:48;95147.06;;;10.11;69.02
52923;BME280;38796;42.702;23.306;2022-12-07T09:20:46;95152.91;;;9.54;71.32
52923;BME280;38796;42.702;23.306;2022-12-07T09:22:44;95155.13;;;9.07;73.85
52923;BME280;38796;42.702;23.306;2022-12-07T09:24:43;95149.22;;;8.94;74.55
52923;BME280;38796;42.702;23.306;2022-12-07T09:26:42;95151.91;;;8.50;76.39
52923;BME280;38796;42.702;23.306;2022-12-07T09:28:40;95150.78;;;8.21;78.47
52923;BME280;38796;42.702;23.306;2022-12-07T09:30:39;95142.31;;;8.17;78.55
52923;BME280;38796;42.702;23.306;2022-12-07T09:33:02;95134.91;;;8.22;78.31
52923;BME280;38796;42.702;23.306;2022-12-07T09:35:00;95144.53;;;8.33;78.10
52923;BME280;38796;42.702;23.306;2022-12-07T09:37:00;95133.00;;;8.24;78.21
52923;BME280;38796;42.702;23.306;2022-12-07T09:38:59;95138.59;;;8.31;78.09
52923;BME280;38796;42.702;23.306;2022-12-07T09:41:05;95133.63;;;8.16;78.84
52923;BME280;38796;42.702;23.306;2022-12-07T09:43:03;95119.44;;;8.19;78.59
52923;BME280;38796;42.702;23.306;2022-12-07T09:45:02;95119.56;;;8.06;79.37
52923;BME280;38796;42.702;23.306;2022-12-07T09:47:02;95124.13;;;8.04;79.81
52923;BME280;38796;42.702;23.306;2022-12-07T09:49:00;95119.97;;;8.02;79.80
52923;BME280;38796;42.702;23.306;2022-12-07T09:50:59;95116.53;;;7.90;80.11
52923;BME280;38796;42.702;23.306;2022-12-07T09:53:03;95128.44;;;7.83;81.09
52923;BME280;38796;42.702;23.306;2022-12-07T09:55:07;95115.06;;;7.86;80.91
52923;BME280;38796;42.702;23.306;2022-12-07T09:57:08;95114.16;;;7.76;80.96
52923;BME280;38796;42.702;23.306;2022-12-07T09:59:09;95114.16;;;7.76;81.67
52923;BME280;38796;42.702;23.306;2022-12-07T10:01:12;95107.09;;;7.87;81.80
52923;BME280;38796;42.702;23.306;2022-12-07T10:03:10;95111.16;;;7.91;81.23
52923;BME280;38796;42.702;23.306;2022-12-07T10:05:12;95114.97;;;7.87;81.28
52923;BME280;38796;42.702;23.306;2022-12-07T10:07:19;95102.47;;;7.91;81.66
52923;BME280;38796;42.702;23.306;2022-12-07T10:09:18;95101.66;;;8.23;80.29
52923;BME280;38796;42.702;23.306;2022-12-07T10:11:16;95095.22;;;8.27;79.46
52923;BME280;38796;42.702;23.306;2022-12-07T10:13:18;95095.41;;;8.35;79.32
52923;BME280;38796;42.702;23.306;2022-12-07T10:15:17;95095.19;;;8.38;79.36
52923;BME280;38796;42.702;23.306;2022-12-07T10:17:35;95092.88;;;8.56;78.41
52923;BME280;38796;42.702;23.306;2022-12-07T10:19:33;95087.31;;;8.91;77.15
52923;BME280;38796;42.702;23.306;2022-12-07T10:21:31;95087.66;;;9.28;75.80
52923;BME280;38796;42.702;23.306;2022-12-07T10:23:29;95075.19;;;9.61;73.99
52923;BME280;38796;42.702;23.306;2022-12-07T10:25:28;95072.78;;;9.79;72.78
52923;BME280;38796;42.702;23.306;2022-12-07T10:27:29;95079.31;;;9.94;72.67
52923;BME280;38796;42.702;23.306;2022-12-07T10:29:30;95063.19;;;10.38;71.59